Anthony, New Mexico
Current Conditions -  °F | °C
As of 8:58 AM on Tuesday 27 Jan 2015 (Local Time) from KBIF Reporting Station
Scattered Clouds Scattered Clouds  
Wind Chill: 45°   Ceiling: Unl
Heat Index: 47°   Visibility: 10mi
Dew Point: 33°   Wind: 6mph
Humidity: 57%   Direction: 10°N
Pressure: 30.35"   Gusts: NA
Location:  32°N, 106.6°W
Report Text: KBIF 271558Z 01005KT 10SM SCT090 09/01 A3035 RMK AO2A SLP257 T00860005 $
Loading
Personal Weather Stations






























Interactive Weather Map New forecast layout! Learn more

10-Day Weather Forecast

Advertisements
Track Severe Weather on mobile